sensor_id;sensor_type;location;lat;lon;timestamp;P1;durP1;ratioP1;P2;durP2;ratioP2
16127;SDS011;8168;49.036;7.690;2023-10-31T00:02:28;1.53;;;1.10;;
16127;SDS011;8168;49.036;7.690;2023-10-31T00:04:58;0.87;;;0.80;;
16127;SDS011;8168;49.036;7.690;2023-10-31T00:07:29;3.10;;;1.10;;
16127;SDS011;8168;49.036;7.690;2023-10-31T00:10:00;1.10;;;1.00;;
16127;SDS011;8168;49.036;7.690;2023-10-31T00:12:31;1.10;;;1.00;;
16127;SDS011;8168;49.036;7.690;2023-10-31T00:15:02;1.40;;;1.10;;
16127;SDS011;8168;49.036;7.690;2023-10-31T00:17:33;1.00;;;0.90;;
16127;SDS011;8168;49.036;7.690;2023-10-31T00:20:03;0.60;;;0.60;;
16127;SDS011;8168;49.036;7.690;2023-10-31T00:22:35;1.23;;;1.10;;
16127;SDS011;8168;49.036;7.690;2023-10-31T00:25:05;1.20;;;0.90;;
16127;SDS011;8168;49.036;7.690;2023-10-31T00:27:36;1.30;;;0.80;;
16127;SDS011;8168;49.036;7.690;2023-10-31T00:30:07;0.70;;;0.70;;
16127;SDS011;8168;49.036;7.690;2023-10-31T00:32:38;3.30;;;0.90;;
16127;SDS011;8168;49.036;7.690;2023-10-31T00:35:09;0.70;;;0.70;;
16127;SDS011;8168;49.036;7.690;2023-10-31T00:37:42;0.50;;;0.50;;
16127;SDS011;8168;49.036;7.690;2023-10-31T00:40:13;2.83;;;0.70;;
16127;SDS011;8168;49.036;7.690;2023-10-31T00:42:44;1.07;;;0.83;;
16127;SDS011;8168;49.036;7.690;2023-10-31T00:45:14;0.80;;;0.70;;
16127;SDS011;8168;49.036;7.690;2023-10-31T00:47:45;1.03;;;0.70;;
16127;SDS011;8168;49.036;7.690;2023-10-31T00:50:15;0.73;;;0.67;;
16127;SDS011;8168;49.036;7.690;2023-10-31T00:52:46;1.20;;;0.70;;
16127;SDS011;8168;49.036;7.690;2023-10-31T00:55:17;0.40;;;0.40;;
16127;SDS011;8168;49.036;7.690;2023-10-31T00:57:47;1.33;;;0.70;;
16127;SDS011;8168;49.036;7.690;2023-10-31T01:00:18;1.57;;;0.40;;
16127;SDS011;8168;49.036;7.690;2023-10-31T01:02:49;1.00;;;0.60;;
16127;SDS011;8168;49.036;7.690;2023-10-31T01:05:19;0.80;;;0.80;;
16127;SDS011;8168;49.036;7.690;2023-10-31T01:07:50;0.93;;;0.80;;
16127;SDS011;8168;49.036;7.690;2023-10-31T01:10:21;0.70;;;0.60;;
16127;SDS011;8168;49.036;7.690;2023-10-31T01:12:51;0.97;;;0.60;;
16127;SDS011;8168;49.036;7.690;2023-10-31T01:15:22;1.23;;;0.77;;
16127;SDS011;8168;49.036;7.690;2023-10-31T01:17:52;0.60;;;0.60;;
16127;SDS011;8168;49.036;7.690;2023-10-31T01:20:23;1.60;;;0.50;;
16127;SDS011;8168;49.036;7.690;2023-10-31T01:22:54;1.13;;;0.70;;
16127;SDS011;8168;49.036;7.690;2023-10-31T01:25:25;1.40;;;0.50;;
16127;SDS011;8168;49.036;7.690;2023-10-31T01:27:55;0.63;;;0.63;;
16127;SDS011;8168;49.036;7.690;2023-10-31T01:30:26;0.50;;;0.50;;
16127;SDS011;8168;49.036;7.690;2023-10-31T01:32:56;1.00;;;0.60;;
16127;SDS011;8168;49.036;7.690;2023-10-31T01:35:27;0.83;;;0.60;;
16127;SDS011;8168;49.036;7.690;2023-10-31T01:37:58;0.50;;;0.50;;
16127;SDS011;8168;49.036;7.690;2023-10-31T01:40:28;0.80;;;0.67;;
16127;SDS011;8168;49.036;7.690;2023-10-31T01:42:59;0.70;;;0.60;;
16127;SDS011;8168;49.036;7.690;2023-10-31T01:45:29;2.53;;;0.53;;
16127;SDS011;8168;49.036;7.690;2023-10-31T01:48:00;0.97;;;0.60;;
16127;SDS011;8168;49.036;7.690;2023-10-31T01:50:31;0.73;;;0.70;;
16127;SDS011;8168;49.036;7.690;2023-10-31T01:53:01;0.47;;;0.47;;
16127;SDS011;8168;49.036;7.690;2023-10-31T01:55:32;0.60;;;0.60;;
16127;SDS011;8168;49.036;7.690;2023-10-31T01:58:03;0.57;;;0.57;;
16127;SDS011;8168;49.036;7.690;2023-10-31T02:00:33;0.40;;;0.30;;
16127;SDS011;8168;49.036;7.690;2023-10-31T02:03:04;0.67;;;0.67;;
16127;SDS011;8168;49.036;7.690;2023-10-31T02:05:35;0.77;;;0.60;;
16127;SDS011;8168;49.036;7.690;2023-10-31T02:08:06;3.90;;;0.60;;
16127;SDS011;8168;49.036;7.690;2023-10-31T02:10:38;0.73;;;0.63;;
16127;SDS011;8168;49.036;7.690;2023-10-31T02:13:12;0.50;;;0.47;;
16127;SDS011;8168;49.036;7.690;2023-10-31T02:15:44;0.60;;;0.60;;
16127;SDS011;8168;49.036;7.690;2023-10-31T02:18:15;0.50;;;0.50;;
16127;SDS011;8168;49.036;7.690;2023-10-31T02:20:46;0.40;;;0.40;;
16127;SDS011;8168;49.036;7.690;2023-10-31T02:23:16;1.13;;;0.50;;
16127;SDS011;8168;49.036;7.690;2023-10-31T02:25:47;0.60;;;0.50;;
16127;SDS011;8168;49.036;7.690;2023-10-31T02:28:17;1.80;;;0.70;;
16127;SDS011;8168;49.036;7.690;2023-10-31T02:30:48;2.10;;;0.50;;
16127;SDS011;8168;49.036;7.690;2023-10-31T02:33:19;1.00;;;0.60;;
16127;SDS011;8168;49.036;7.690;2023-10-31T02:35:49;0.63;;;0.57;;
16127;SDS011;8168;49.036;7.690;2023-10-31T02:38:20;0.50;;;0.47;;
16127;SDS011;8168;49.036;7.690;2023-10-31T02:40:50;0.50;;;0.50;;
16127;SDS011;8168;49.036;7.690;2023-10-31T02:43:21;0.60;;;0.60;;
16127;SDS011;8168;49.036;7.690;2023-10-31T02:45:52;1.63;;;0.60;;
16127;SDS011;8168;49.036;7.690;2023-10-31T02:48:22;0.37;;;0.37;;
16127;SDS011;8168;49.036;7.690;2023-10-31T02:50:54;0.80;;;0.63;;
16127;SDS011;8168;49.036;7.690;2023-10-31T02:53:25;0.60;;;0.40;;
16127;SDS011;8168;49.036;7.690;2023-10-31T02:55:55;0.80;;;0.60;;
16127;SDS011;8168;49.036;7.690;2023-10-31T02:58:26;0.63;;;0.50;;
16127;SDS011;8168;49.036;7.690;2023-10-31T03:00:57;0.50;;;0.50;;
16127;SDS011;8168;49.036;7.690;2023-10-31T03:03:27;0.40;;;0.40;;
16127;SDS011;8168;49.036;7.690;2023-10-31T03:05:58;0.30;;;0.30;;
16127;SDS011;8168;49.036;7.690;2023-10-31T03:08:28;0.50;;;0.50;;
16127;SDS011;8168;49.036;7.690;2023-10-31T03:10:59;2.70;;;0.80;;
16127;SDS011;8168;49.036;7.690;2023-10-31T03:13:30;3.53;;;0.60;;
16127;SDS011;8168;49.036;7.690;2023-10-31T03:16:00;2.27;;;0.60;;
16127;SDS011;8168;49.036;7.690;2023-10-31T03:18:31;0.63;;;0.40;;
16127;SDS011;8168;49.036;7.690;2023-10-31T03:21:01;2.53;;;0.70;;
16127;SDS011;8168;49.036;7.690;2023-10-31T03:23:32;0.40;;;0.40;;
16127;SDS011;8168;49.036;7.690;2023-10-31T03:26:03;0.63;;;0.63;;
16127;SDS011;8168;49.036;7.690;2023-10-31T03:28:34;0.40;;;0.40;;
16127;SDS011;8168;49.036;7.690;2023-10-31T03:31:04;1.13;;;0.77;;
16127;SDS011;8168;49.036;7.690;2023-10-31T03:33:35;1.23;;;0.80;;
16127;SDS011;8168;49.036;7.690;2023-10-31T03:36:06;1.17;;;0.57;;
16127;SDS011;8168;49.036;7.690;2023-10-31T03:38:36;1.00;;;0.70;;
16127;SDS011;8168;49.036;7.690;2023-10-31T03:41:07;1.40;;;0.90;;
16127;SDS011;8168;49.036;7.690;2023-10-31T03:43:38;1.83;;;1.07;;
16127;SDS011;8168;49.036;7.690;2023-10-31T03:46:09;0.80;;;0.63;;
16127;SDS011;8168;49.036;7.690;2023-10-31T03:48:41;2.23;;;0.73;;
16127;SDS011;8168;49.036;7.690;2023-10-31T03:51:12;1.07;;;0.70;;
16127;SDS011;8168;49.036;7.690;2023-10-31T03:53:42;2.33;;;0.70;;
16127;SDS011;8168;49.036;7.690;2023-10-31T03:56:13;0.73;;;0.73;;
16127;SDS011;8168;49.036;7.690;2023-10-31T03:58:44;0.90;;;0.90;;
16127;SDS011;8168;49.036;7.690;2023-10-31T04:01:14;1.07;;;0.73;;
16127;SDS011;8168;49.036;7.690;2023-10-31T04:03:45;2.13;;;0.70;;
16127;SDS011;8168;49.036;7.690;2023-10-31T04:06:16;1.43;;;0.73;;
16127;SDS011;8168;49.036;7.690;2023-10-31T04:08:46;1.30;;;0.70;;
16127;SDS011;8168;49.036;7.690;2023-10-31T04:11:17;2.07;;;0.70;;
16127;SDS011;8168;49.036;7.690;2023-10-31T04:13:48;1.00;;;0.97;;
16127;SDS011;8168;49.036;7.690;2023-10-31T04:16:18;0.83;;;0.60;;
16127;SDS011;8168;49.036;7.690;2023-10-31T04:18:49;3.13;;;0.97;;
16127;SDS011;8168;49.036;7.690;2023-10-31T04:21:19;2.70;;;0.87;;
16127;SDS011;8168;49.036;7.690;2023-10-31T04:23:50;0.83;;;0.50;;
16127;SDS011;8168;49.036;7.690;2023-10-31T04:26:21;1.73;;;0.80;;
16127;SDS011;8168;49.036;7.690;2023-10-31T04:28:51;0.93;;;0.70;;
16127;SDS011;8168;49.036;7.690;2023-10-31T04:31:22;1.37;;;0.90;;
16127;SDS011;8168;49.036;7.690;2023-10-31T04:33:53;1.40;;;0.70;;
16127;SDS011;8168;49.036;7.690;2023-10-31T04:36:23;0.70;;;0.70;;
16127;SDS011;8168;49.036;7.690;2023-10-31T04:38:54;1.20;;;0.80;;
16127;SDS011;8168;49.036;7.690;2023-10-31T04:41:25;0.70;;;0.70;;
16127;SDS011;8168;49.036;7.690;2023-10-31T04:43:55;0.80;;;0.70;;
16127;SDS011;8168;49.036;7.690;2023-10-31T04:46:26;0.70;;;0.70;;
16127;SDS011;8168;49.036;7.690;2023-10-31T04:48:57;1.27;;;0.90;;
16127;SDS011;8168;49.036;7.690;2023-10-31T04:51:27;2.13;;;0.80;;
16127;SDS011;8168;49.036;7.690;2023-10-31T04:54:03;0.87;;;0.70;;
16127;SDS011;8168;49.036;7.690;2023-10-31T04:56:35;3.13;;;0.90;;
16127;SDS011;8168;49.036;7.690;2023-10-31T04:59:06;1.47;;;0.90;;
16127;SDS011;8168;49.036;7.690;2023-10-31T05:01:37;0.67;;;0.67;;
16127;SDS011;8168;49.036;7.690;2023-10-31T05:04:07;2.80;;;0.73;;
16127;SDS011;8168;49.036;7.690;2023-10-31T05:06:38;1.07;;;0.80;;
16127;SDS011;8168;49.036;7.690;2023-10-31T05:09:08;0.77;;;0.77;;
16127;SDS011;8168;49.036;7.690;2023-10-31T05:11:43;1.47;;;0.97;;
16127;SDS011;8168;49.036;7.690;2023-10-31T05:14:13;0.67;;;0.67;;
16127;SDS011;8168;49.036;7.690;2023-10-31T05:16:44;3.97;;;0.70;;
16127;SDS011;8168;49.036;7.690;2023-10-31T05:19:15;3.10;;;0.70;;
16127;SDS011;8168;49.036;7.690;2023-10-31T05:21:45;2.67;;;0.93;;
16127;SDS011;8168;49.036;7.690;2023-10-31T05:24:16;5.27;;;0.87;;
16127;SDS011;8168;49.036;7.690;2023-10-31T05:26:46;3.03;;;0.70;;
16127;SDS011;8168;49.036;7.690;2023-10-31T05:29:17;0.83;;;0.70;;
16127;SDS011;8168;49.036;7.690;2023-10-31T05:31:48;2.93;;;1.00;;
16127;SDS011;8168;49.036;7.690;2023-10-31T05:34:18;1.27;;;0.77;;
16127;SDS011;8168;49.036;7.690;2023-10-31T05:36:49;2.53;;;0.70;;
16127;SDS011;8168;49.036;7.690;2023-10-31T05:39:19;1.70;;;0.73;;
16127;SDS011;8168;49.036;7.690;2023-10-31T05:41:50;2.50;;;1.00;;
16127;SDS011;8168;49.036;7.690;2023-10-31T05:44:21;1.33;;;0.80;;
16127;SDS011;8168;49.036;7.690;2023-10-31T05:46:51;2.63;;;0.80;;
16127;SDS011;8168;49.036;7.690;2023-10-31T05:49:22;3.77;;;1.03;;
16127;SDS011;8168;49.036;7.690;2023-10-31T05:51:52;2.00;;;1.00;;
16127;SDS011;8168;49.036;7.690;2023-10-31T05:54:23;2.13;;;0.70;;
16127;SDS011;8168;49.036;7.690;2023-10-31T05:56:55;1.13;;;1.00;;
16127;SDS011;8168;49.036;7.690;2023-10-31T05:59:26;1.07;;;0.93;;
16127;SDS011;8168;49.036;7.690;2023-10-31T06:01:57;1.80;;;0.97;;
16127;SDS011;8168;49.036;7.690;2023-10-31T06:04:27;0.83;;;0.83;;
16127;SDS011;8168;49.036;7.690;2023-10-31T06:06:58;0.60;;;0.60;;
16127;SDS011;8168;49.036;7.690;2023-10-31T06:09:29;3.93;;;1.00;;
16127;SDS011;8168;49.036;7.690;2023-10-31T06:12:00;1.20;;;0.93;;
16127;SDS011;8168;49.036;7.690;2023-10-31T06:14:30;1.70;;;0.97;;
16127;SDS011;8168;49.036;7.690;2023-10-31T06:17:02;1.93;;;1.00;;
16127;SDS011;8168;49.036;7.690;2023-10-31T06:19:36;0.93;;;0.83;;
16127;SDS011;8168;49.036;7.690;2023-10-31T06:22:07;0.80;;;0.80;;
16127;SDS011;8168;49.036;7.690;2023-10-31T06:24:37;2.60;;;1.47;;
16127;SDS011;8168;49.036;7.690;2023-10-31T06:27:08;1.83;;;0.77;;
16127;SDS011;8168;49.036;7.690;2023-10-31T06:29:38;2.03;;;1.00;;
16127;SDS011;8168;49.036;7.690;2023-10-31T06:32:09;4.60;;;0.90;;
16127;SDS011;8168;49.036;7.690;2023-10-31T06:34:39;2.17;;;0.90;;
16127;SDS011;8168;49.036;7.690;2023-10-31T06:37:10;4.30;;;1.07;;
16127;SDS011;8168;49.036;7.690;2023-10-31T06:39:41;2.23;;;1.03;;
16127;SDS011;8168;49.036;7.690;2023-10-31T06:42:11;1.00;;;0.90;;
16127;SDS011;8168;49.036;7.690;2023-10-31T06:44:42;1.10;;;1.00;;
16127;SDS011;8168;49.036;7.690;2023-10-31T06:47:12;1.70;;;0.90;;
16127;SDS011;8168;49.036;7.690;2023-10-31T06:49:43;1.63;;;0.80;;
16127;SDS011;8168;49.036;7.690;2023-10-31T06:52:14;2.10;;;0.90;;
16127;SDS011;8168;49.036;7.690;2023-10-31T06:54:44;0.80;;;0.80;;
16127;SDS011;8168;49.036;7.690;2023-10-31T06:57:15;3.13;;;1.20;;
16127;SDS011;8168;49.036;7.690;2023-10-31T06:59:46;2.30;;;1.30;;
16127;SDS011;8168;49.036;7.690;2023-10-31T07:02:16;2.77;;;1.07;;
16127;SDS011;8168;49.036;7.690;2023-10-31T07:04:47;3.37;;;1.43;;
16127;SDS011;8168;49.036;7.690;2023-10-31T07:07:18;2.17;;;1.23;;
16127;SDS011;8168;49.036;7.690;2023-10-31T07:09:48;4.47;;;1.13;;
16127;SDS011;8168;49.036;7.690;2023-10-31T07:12:19;3.87;;;1.07;;
16127;SDS011;8168;49.036;7.690;2023-10-31T07:14:50;2.60;;;0.70;;
16127;SDS011;8168;49.036;7.690;2023-10-31T07:17:20;1.77;;;1.27;;
16127;SDS011;8168;49.036;7.690;2023-10-31T07:19:51;3.70;;;1.60;;
16127;SDS011;8168;49.036;7.690;2023-10-31T07:22:22;4.83;;;1.53;;
16127;SDS011;8168;49.036;7.690;2023-10-31T07:24:55;2.17;;;1.27;;
16127;SDS011;8168;49.036;7.690;2023-10-31T07:27:27;2.97;;;1.30;;
16127;SDS011;8168;49.036;7.690;2023-10-31T07:29:58;2.30;;;1.07;;
16127;SDS011;8168;49.036;7.690;2023-10-31T07:32:28;2.93;;;0.97;;
16127;SDS011;8168;49.036;7.690;2023-10-31T07:34:59;1.47;;;1.10;;
16127;SDS011;8168;49.036;7.690;2023-10-31T07:37:30;4.83;;;1.10;;
16127;SDS011;8168;49.036;7.690;2023-10-31T07:40:00;4.50;;;1.20;;
16127;SDS011;8168;49.036;7.690;2023-10-31T07:42:31;3.87;;;0.87;;
16127;SDS011;8168;49.036;7.690;2023-10-31T07:45:02;3.20;;;1.17;;
16127;SDS011;8168;49.036;7.690;2023-10-31T07:47:32;2.47;;;1.57;;
16127;SDS011;8168;49.036;7.690;2023-10-31T07:50:03;3.10;;;1.10;;
16127;SDS011;8168;49.036;7.690;2023-10-31T07:52:35;3.50;;;0.93;;
16127;SDS011;8168;49.036;7.690;2023-10-31T07:55:05;2.33;;;1.17;;
16127;SDS011;8168;49.036;7.690;2023-10-31T07:57:36;6.13;;;1.57;;
16127;SDS011;8168;49.036;7.690;2023-10-31T08:00:12;3.60;;;1.30;;
16127;SDS011;8168;49.036;7.690;2023-10-31T08:02:43;4.77;;;1.53;;
16127;SDS011;8168;49.036;7.690;2023-10-31T08:05:14;6.13;;;1.57;;
16127;SDS011;8168;49.036;7.690;2023-10-31T08:07:45;5.80;;;1.23;;
16127;SDS011;8168;49.036;7.690;2023-10-31T08:10:16;3.03;;;1.60;;
16127;SDS011;8168;49.036;7.690;2023-10-31T08:12:46;1.30;;;1.20;;
16127;SDS011;8168;49.036;7.690;2023-10-31T08:15:17;3.60;;;1.73;;
16127;SDS011;8168;49.036;7.690;2023-10-31T08:17:48;4.27;;;1.30;;
16127;SDS011;8168;49.036;7.690;2023-10-31T08:20:18;7.43;;;1.70;;
16127;SDS011;8168;49.036;7.690;2023-10-31T08:22:49;3.70;;;1.57;;
16127;SDS011;8168;49.036;7.690;2023-10-31T08:25:19;1.20;;;1.10;;
16127;SDS011;8168;49.036;7.690;2023-10-31T08:27:50;2.87;;;1.27;;
16127;SDS011;8168;49.036;7.690;2023-10-31T08:30:20;1.30;;;0.93;;
16127;SDS011;8168;49.036;7.690;2023-10-31T08:32:51;2.33;;;1.10;;
16127;SDS011;8168;49.036;7.690;2023-10-31T08:35:23;1.87;;;1.10;;
16127;SDS011;8168;49.036;7.690;2023-10-31T08:37:54;5.57;;;1.30;;
16127;SDS011;8168;49.036;7.690;2023-10-31T08:40:25;1.70;;;0.80;;
16127;SDS011;8168;49.036;7.690;2023-10-31T08:42:55;3.37;;;1.20;;
16127;SDS011;8168;49.036;7.690;2023-10-31T08:45:27;5.27;;;1.13;;
16127;SDS011;8168;49.036;7.690;2023-10-31T08:47:57;2.70;;;1.03;;
16127;SDS011;8168;49.036;7.690;2023-10-31T08:50:28;2.57;;;1.20;;
16127;SDS011;8168;49.036;7.690;2023-10-31T08:52:58;2.70;;;1.07;;
16127;SDS011;8168;49.036;7.690;2023-10-31T08:55:29;1.80;;;1.10;;
16127;SDS011;8168;49.036;7.690;2023-10-31T08:58:00;4.03;;;1.23;;
16127;SDS011;8168;49.036;7.690;2023-10-31T09:00:30;5.33;;;1.40;;
16127;SDS011;8168;49.036;7.690;2023-10-31T09:03:01;3.83;;;1.53;;
16127;SDS011;8168;49.036;7.690;2023-10-31T09:05:31;4.80;;;1.47;;
16127;SDS011;8168;49.036;7.690;2023-10-31T09:08:02;1.13;;;0.97;;
16127;SDS011;8168;49.036;7.690;2023-10-31T09:10:35;2.17;;;0.90;;
16127;SDS011;8168;49.036;7.690;2023-10-31T09:13:08;6.20;;;1.20;;
16127;SDS011;8168;49.036;7.690;2023-10-31T09:15:39;4.57;;;1.33;;
16127;SDS011;8168;49.036;7.690;2023-10-31T09:18:11;4.13;;;1.20;;
16127;SDS011;8168;49.036;7.690;2023-10-31T09:20:43;3.60;;;1.23;;
16127;SDS011;8168;49.036;7.690;2023-10-31T09:23:13;3.73;;;1.47;;
16127;SDS011;8168;49.036;7.690;2023-10-31T09:25:44;2.23;;;1.13;;
16127;SDS011;8168;49.036;7.690;2023-10-31T09:28:15;4.70;;;1.30;;
16127;SDS011;8168;49.036;7.690;2023-10-31T09:30:45;4.50;;;1.53;;
16127;SDS011;8168;49.036;7.690;2023-10-31T09:33:16;6.53;;;1.40;;
16127;SDS011;8168;49.036;7.690;2023-10-31T09:35:47;5.00;;;1.40;;
16127;SDS011;8168;49.036;7.690;2023-10-31T09:38:17;5.57;;;2.00;;
16127;SDS011;8168;49.036;7.690;2023-10-31T09:40:48;3.17;;;1.53;;
16127;SDS011;8168;49.036;7.690;2023-10-31T09:43:19;2.90;;;1.70;;
16127;SDS011;8168;49.036;7.690;2023-10-31T09:45:50;3.47;;;1.50;;
16127;SDS011;8168;49.036;7.690;2023-10-31T09:48:22;1.40;;;1.30;;
16127;SDS011;8168;49.036;7.690;2023-10-31T09:50:53;3.43;;;1.40;;
16127;SDS011;8168;49.036;7.690;2023-10-31T09:53:24;2.03;;;1.20;;
16127;SDS011;8168;49.036;7.690;2023-10-31T09:55:55;4.23;;;1.77;;
16127;SDS011;8168;49.036;7.690;2023-10-31T09:58:27;1.77;;;1.37;;
16127;SDS011;8168;49.036;7.690;2023-10-31T10:00:57;1.80;;;1.70;;
16127;SDS011;8168;49.036;7.690;2023-10-31T10:03:28;3.37;;;1.50;;
16127;SDS011;8168;49.036;7.690;2023-10-31T10:05:59;2.97;;;1.47;;
16127;SDS011;8168;49.036;7.690;2023-10-31T10:08:32;3.23;;;1.20;;
16127;SDS011;8168;49.036;7.690;2023-10-31T10:11:07;3.87;;;1.40;;
16127;SDS011;8168;49.036;7.690;2023-10-31T10:13:38;0.83;;;0.83;;
16127;SDS011;8168;49.036;7.690;2023-10-31T10:16:10;3.70;;;0.90;;
16127;SDS011;8168;49.036;7.690;2023-10-31T10:18:40;2.20;;;1.10;;
16127;SDS011;8168;49.036;7.690;2023-10-31T10:21:11;3.50;;;1.10;;
16127;SDS011;8168;49.036;7.690;2023-10-31T10:23:42;3.53;;;1.07;;
16127;SDS011;8168;49.036;7.690;2023-10-31T10:26:12;3.43;;;1.07;;
16127;SDS011;8168;49.036;7.690;2023-10-31T10:28:46;3.27;;;1.10;;
16127;SDS011;8168;49.036;7.690;2023-10-31T10:31:18;3.80;;;1.10;;
16127;SDS011;8168;49.036;7.690;2023-10-31T10:33:48;2.27;;;1.10;;
16127;SDS011;8168;49.036;7.690;2023-10-31T10:36:19;1.73;;;1.17;;
16127;SDS011;8168;49.036;7.690;2023-10-31T10:38:51;1.20;;;1.10;;
16127;SDS011;8168;49.036;7.690;2023-10-31T10:41:27;3.30;;;0.73;;
16127;SDS011;8168;49.036;7.690;2023-10-31T10:44:05;1.37;;;0.97;;
16127;SDS011;8168;49.036;7.690;2023-10-31T10:46:37;1.47;;;0.97;;
16127;SDS011;8168;49.036;7.690;2023-10-31T10:49:09;1.80;;;1.00;;
16127;SDS011;8168;49.036;7.690;2023-10-31T10:55:00;1.60;;;0.87;;
16127;SDS011;8168;49.036;7.690;2023-10-31T11:00:35;1.00;;;0.90;;
16127;SDS011;8168;49.036;7.690;2023-10-31T11:03:07;3.13;;;1.40;;
16127;SDS011;8168;49.036;7.690;2023-10-31T11:05:38;4.50;;;1.47;;
16127;SDS011;8168;49.036;7.690;2023-10-31T11:08:10;2.47;;;0.80;;
16127;SDS011;8168;49.036;7.690;2023-10-31T11:10:41;2.83;;;1.33;;
16127;SDS011;8168;49.036;7.690;2023-10-31T11:13:13;1.80;;;0.90;;
16127;SDS011;8168;49.036;7.690;2023-10-31T11:15:44;2.03;;;1.23;;
16127;SDS011;8168;49.036;7.690;2023-10-31T11:18:15;0.80;;;0.80;;
16127;SDS011;8168;49.036;7.690;2023-10-31T11:20:47;3.20;;;1.30;;
16127;SDS011;8168;49.036;7.690;2023-10-31T11:23:18;1.23;;;0.90;;
16127;SDS011;8168;49.036;7.690;2023-10-31T11:25:50;1.47;;;1.07;;
16127;SDS011;8168;49.036;7.690;2023-10-31T11:28:24;1.30;;;0.90;;
16127;SDS011;8168;49.036;7.690;2023-10-31T11:30:56;2.40;;;1.03;;
16127;SDS011;8168;49.036;7.690;2023-10-31T11:33:31;1.43;;;0.90;;
16127;SDS011;8168;49.036;7.690;2023-10-31T11:36:01;2.33;;;1.00;;
16127;SDS011;8168;49.036;7.690;2023-10-31T11:38:37;1.70;;;0.90;;
16127;SDS011;8168;49.036;7.690;2023-10-31T11:41:08;5.50;;;1.17;;
16127;SDS011;8168;49.036;7.690;2023-10-31T11:43:50;4.60;;;1.37;;
16127;SDS011;8168;49.036;7.690;2023-10-31T11:46:22;6.03;;;1.47;;
16127;SDS011;8168;49.036;7.690;2023-10-31T11:48:58;3.17;;;0.93;;
16127;SDS011;8168;49.036;7.690;2023-10-31T11:51:31;3.60;;;1.00;;
16127;SDS011;8168;49.036;7.690;2023-10-31T11:54:02;1.43;;;0.80;;
16127;SDS011;8168;49.036;7.690;2023-10-31T11:56:32;2.23;;;1.23;;
16127;SDS011;8168;49.036;7.690;2023-10-31T11:59:04;2.47;;;1.33;;
16127;SDS011;8168;49.036;7.690;2023-10-31T12:01:46;2.20;;;1.40;;
16127;SDS011;8168;49.036;7.690;2023-10-31T12:04:23;0.93;;;0.70;;
16127;SDS011;8168;49.036;7.690;2023-10-31T12:07:00;3.03;;;0.77;;
16127;SDS011;8168;49.036;7.690;2023-10-31T12:09:31;1.23;;;0.70;;
16127;SDS011;8168;49.036;7.690;2023-10-31T12:12:01;0.67;;;0.67;;
16127;SDS011;8168;49.036;7.690;2023-10-31T12:14:32;1.60;;;0.80;;
16127;SDS011;8168;49.036;7.690;2023-10-31T12:17:03;1.20;;;0.60;;
16127;SDS011;8168;49.036;7.690;2023-10-31T12:19:34;1.43;;;0.83;;
16127;SDS011;8168;49.036;7.690;2023-10-31T12:22:12;2.57;;;0.80;;
16127;SDS011;8168;49.036;7.690;2023-10-31T12:24:44;3.07;;;0.80;;
16127;SDS011;8168;49.036;7.690;2023-10-31T12:27:16;1.83;;;1.00;;
16127;SDS011;8168;49.036;7.690;2023-10-31T12:29:46;2.70;;;1.07;;
16127;SDS011;8168;49.036;7.690;2023-10-31T12:32:20;2.43;;;0.90;;
16127;SDS011;8168;49.036;7.690;2023-10-31T12:34:51;0.73;;;0.70;;
16127;SDS011;8168;49.036;7.690;2023-10-31T12:37:22;0.60;;;0.60;;
16127;SDS011;8168;49.036;7.690;2023-10-31T12:39:53;1.50;;;0.70;;
16127;SDS011;8168;49.036;7.690;2023-10-31T12:42:24;0.90;;;0.70;;
16127;SDS011;8168;49.036;7.690;2023-10-31T12:44:59;1.30;;;0.90;;
16127;SDS011;8168;49.036;7.690;2023-10-31T12:47:30;2.00;;;0.90;;
16127;SDS011;8168;49.036;7.690;2023-10-31T12:55:24;4.13;;;1.23;;
16127;SDS011;8168;49.036;7.690;2023-10-31T12:57:57;3.67;;;1.80;;
16127;SDS011;8168;49.036;7.690;2023-10-31T13:00:32;1.17;;;0.77;;
16127;SDS011;8168;49.036;7.690;2023-10-31T13:03:05;3.13;;;1.20;;
16127;SDS011;8168;49.036;7.690;2023-10-31T13:05:36;1.07;;;0.90;;
16127;SDS011;8168;49.036;7.690;2023-10-31T13:08:13;1.00;;;0.80;;
16127;SDS011;8168;49.036;7.690;2023-10-31T13:10:45;3.93;;;1.13;;
16127;SDS011;8168;49.036;7.690;2023-10-31T13:13:16;0.90;;;0.90;;
16127;SDS011;8168;49.036;7.690;2023-10-31T13:15:46;1.00;;;0.80;;
16127;SDS011;8168;49.036;7.690;2023-10-31T13:18:17;1.13;;;0.80;;
16127;SDS011;8168;49.036;7.690;2023-10-31T13:20:48;0.60;;;0.60;;
16127;SDS011;8168;49.036;7.690;2023-10-31T13:23:19;2.17;;;0.93;;
16127;SDS011;8168;49.036;7.690;2023-10-31T13:25:50;0.97;;;0.80;;
16127;SDS011;8168;49.036;7.690;2023-10-31T13:28:21;0.47;;;0.47;;
16127;SDS011;8168;49.036;7.690;2023-10-31T13:30:51;2.20;;;0.70;;
16127;SDS011;8168;49.036;7.690;2023-10-31T13:33:22;1.43;;;0.70;;
16127;SDS011;8168;49.036;7.690;2023-10-31T13:35:52;2.97;;;0.60;;
16127;SDS011;8168;49.036;7.690;2023-10-31T13:38:23;1.07;;;0.83;;
16127;SDS011;8168;49.036;7.690;2023-10-31T13:40:53;3.23;;;0.90;;
16127;SDS011;8168;49.036;7.690;2023-10-31T13:43:24;1.57;;;0.87;;
16127;SDS011;8168;49.036;7.690;2023-10-31T13:45:55;0.80;;;0.80;;
16127;SDS011;8168;49.036;7.690;2023-10-31T13:48:25;0.80;;;0.70;;
16127;SDS011;8168;49.036;7.690;2023-10-31T13:50:56;1.33;;;0.97;;
16127;SDS011;8168;49.036;7.690;2023-10-31T13:53:26;1.63;;;1.00;;
16127;SDS011;8168;49.036;7.690;2023-10-31T13:55:57;1.47;;;0.80;;
16127;SDS011;8168;49.036;7.690;2023-10-31T13:58:27;0.80;;;0.80;;
16127;SDS011;8168;49.036;7.690;2023-10-31T14:00:58;0.90;;;0.80;;
16127;SDS011;8168;49.036;7.690;2023-10-31T14:03:29;1.40;;;0.70;;
16127;SDS011;8168;49.036;7.690;2023-10-31T14:06:00;2.07;;;0.60;;
16127;SDS011;8168;49.036;7.690;2023-10-31T14:08:31;0.80;;;0.80;;
16127;SDS011;8168;49.036;7.690;2023-10-31T14:11:02;1.17;;;0.70;;
16127;SDS011;8168;49.036;7.690;2023-10-31T14:13:32;2.77;;;0.90;;
16127;SDS011;8168;49.036;7.690;2023-10-31T14:16:05;2.20;;;1.00;;
16127;SDS011;8168;49.036;7.690;2023-10-31T14:18:36;4.10;;;0.80;;
16127;SDS011;8168;49.036;7.690;2023-10-31T14:21:07;2.10;;;1.05;;
16127;SDS011;8168;49.036;7.690;2023-10-31T14:23:37;1.27;;;0.90;;
16127;SDS011;8168;49.036;7.690;2023-10-31T14:26:08;0.93;;;0.70;;
16127;SDS011;8168;49.036;7.690;2023-10-31T14:28:39;1.13;;;0.90;;
16127;SDS011;8168;49.036;7.690;2023-10-31T14:31:10;2.13;;;0.80;;
16127;SDS011;8168;49.036;7.690;2023-10-31T14:33:41;1.60;;;0.90;;
16127;SDS011;8168;49.036;7.690;2023-10-31T14:36:12;0.70;;;0.70;;
16127;SDS011;8168;49.036;7.690;2023-10-31T14:38:43;0.67;;;0.67;;
16127;SDS011;8168;49.036;7.690;2023-10-31T14:41:14;0.90;;;0.87;;
16127;SDS011;8168;49.036;7.690;2023-10-31T14:43:44;1.77;;;0.67;;
16127;SDS011;8168;49.036;7.690;2023-10-31T14:46:15;1.37;;;0.80;;
16127;SDS011;8168;49.036;7.690;2023-10-31T14:48:45;0.70;;;0.70;;
16127;SDS011;8168;49.036;7.690;2023-10-31T14:51:16;1.13;;;1.03;;
16127;SDS011;8168;49.036;7.690;2023-10-31T14:53:47;1.20;;;1.00;;
16127;SDS011;8168;49.036;7.690;2023-10-31T14:56:19;3.10;;;0.70;;
16127;SDS011;8168;49.036;7.690;2023-10-31T14:58:50;2.57;;;1.03;;
16127;SDS011;8168;49.036;7.690;2023-10-31T15:01:21;0.73;;;0.73;;
16127;SDS011;8168;49.036;7.690;2023-10-31T15:03:51;1.47;;;0.90;;
16127;SDS011;8168;49.036;7.690;2023-10-31T15:06:22;0.63;;;0.63;;
16127;SDS011;8168;49.036;7.690;2023-10-31T15:08:53;0.63;;;0.60;;
16127;SDS011;8168;49.036;7.690;2023-10-31T15:11:23;1.20;;;0.80;;
16127;SDS011;8168;49.036;7.690;2023-10-31T15:13:55;2.17;;;1.03;;
16127;SDS011;8168;49.036;7.690;2023-10-31T15:16:25;0.90;;;0.80;;
16127;SDS011;8168;49.036;7.690;2023-10-31T15:18:59;1.60;;;0.93;;
16127;SDS011;8168;49.036;7.690;2023-10-31T15:21:29;3.80;;;1.10;;
16127;SDS011;8168;49.036;7.690;2023-10-31T15:24:00;2.10;;;1.30;;
16127;SDS011;8168;49.036;7.690;2023-10-31T15:26:31;1.53;;;1.37;;
16127;SDS011;8168;49.036;7.690;2023-10-31T15:29:02;4.00;;;1.40;;
16127;SDS011;8168;49.036;7.690;2023-10-31T15:31:32;1.97;;;1.57;;
16127;SDS011;8168;49.036;7.690;2023-10-31T15:34:03;4.73;;;1.83;;
16127;SDS011;8168;49.036;7.690;2023-10-31T15:36:34;0.90;;;0.90;;